createdAt,value
2022-08-25T00:03:02.745Z,9.45
2022-08-25T00:05:33.586Z,9.50
2022-08-25T00:08:06.929Z,10.10
2022-08-25T00:10:37.038Z,10.07
2022-08-25T00:13:10.987Z,10.55
2022-08-25T00:15:47.764Z,9.77
2022-08-25T00:18:20.203Z,9.77
2022-08-25T00:20:50.766Z,10.18
2022-08-25T00:23:21.777Z,9.60
2022-08-25T00:25:51.610Z,10.70
2022-08-25T00:28:21.412Z,10.27
2022-08-25T00:30:52.415Z,9.73
2022-08-25T00:33:21.575Z,10.38
2022-08-25T00:36:08.311Z,9.98
2022-08-25T00:38:38.842Z,10.50
2022-08-25T00:44:05.490Z,9.60
2022-08-25T00:46:42.765Z,10.38
2022-08-25T00:49:39.265Z,10.15
2022-08-25T00:52:25.592Z,10.65
2022-08-25T00:55:11.049Z,9.60
2022-08-25T00:57:46.286Z,10.18
2022-08-25T01:00:26.048Z,10.13
2022-08-25T01:03:01.508Z,10.27
2022-08-25T01:05:40.662Z,9.52
2022-08-25T01:08:16.275Z,10.77
2022-08-25T01:10:44.963Z,10.45
2022-08-25T01:13:22.541Z,10.30
2022-08-25T01:15:55.582Z,10.10
2022-08-25T01:18:25.355Z,10.00
2022-08-25T01:20:57.596Z,10.23
2022-08-25T01:23:32.819Z,10.45
2022-08-25T01:26:19.546Z,10.27
2022-08-25T01:29:12.427Z,11.25
2022-08-25T01:31:54.583Z,10.55
2022-08-25T01:34:23.028Z,10.40
2022-08-25T01:36:51.701Z,10.23
2022-08-25T01:39:18.990Z,10.32
2022-08-25T01:42:19.964Z,10.60
2022-08-25T01:44:55.778Z,10.25
2022-08-25T01:47:28.521Z,10.82
2022-08-25T01:50:04.468Z,10.68
2022-08-25T01:52:37.601Z,10.02
2022-08-25T01:55:08.065Z,10.40
2022-08-25T01:57:36.819Z,10.27
2022-08-25T02:00:11.181Z,10.60
2022-08-25T02:02:42.485Z,10.45
2022-08-25T02:05:22.799Z,10.27
2022-08-25T02:07:52.283Z,10.48
2022-08-25T02:10:19.993Z,10.18
2022-08-25T02:12:48.077Z,11.52
2022-08-25T02:15:17.236Z,10.77
2022-08-25T02:17:52.630Z,10.17
2022-08-25T02:20:21.009Z,10.75
2022-08-25T02:22:56.793Z,10.35
2022-08-25T02:25:31.144Z,10.90
2022-08-25T02:27:58.817Z,10.30
2022-08-25T02:30:26.091Z,10.85
2022-08-25T02:32:53.642Z,11.00
2022-08-25T02:35:22.722Z,10.98
2022-08-25T02:37:51.877Z,11.23
2022-08-25T02:40:24.159Z,10.82
2022-08-25T02:42:59.625Z,10.90
2022-08-25T02:45:26.800Z,10.95
2022-08-25T02:47:57.978Z,10.95
2022-08-25T02:50:26.995Z,10.05
2022-08-25T02:52:55.489Z,10.40
2022-08-25T02:55:26.556Z,10.70
2022-08-25T02:57:55.290Z,10.43
2022-08-25T03:00:27.543Z,10.32
2022-08-25T03:03:01.427Z,11.13
2022-08-25T03:05:34.902Z,10.48
2022-08-25T03:08:02.450Z,10.27
2022-08-25T03:10:33.202Z,10.93
2022-08-25T03:13:07.415Z,11.45
2022-08-25T03:15:37.986Z,10.35
2022-08-25T03:18:08.707Z,10.73
2022-08-25T03:20:38.565Z,11.13
2022-08-25T03:23:08.142Z,10.73
2022-08-25T03:25:53.817Z,11.05
2022-08-25T03:28:25.053Z,11.13
2022-08-25T03:30:57.604Z,10.88
2022-08-25T03:33:26.898Z,11.02
2022-08-25T03:35:55.928Z,10.93
2022-08-25T03:38:26.667Z,10.15
2022-08-25T03:40:59.416Z,10.73
2022-08-25T03:43:30.481Z,10.60
2022-08-25T03:46:00.458Z,10.68
2022-08-25T03:48:30.102Z,11.13
2022-08-25T03:50:58.251Z,11.75
2022-08-25T03:53:28.827Z,11.18
2022-08-25T03:55:58.932Z,11.30
2022-08-25T03:58:29.020Z,11.00
2022-08-25T04:01:01.514Z,11.35
2022-08-25T04:03:32.024Z,11.43
2022-08-25T04:08:31.371Z,9.82
2022-08-25T04:11:00.143Z,10.60
2022-08-25T04:13:29.810Z,10.75
2022-08-25T04:16:01.221Z,10.05
2022-08-25T04:18:31.421Z,10.77
2022-08-25T04:21:10.005Z,10.60
2022-08-25T04:23:43.670Z,9.90
2022-08-25T04:26:17.169Z,10.30
2022-08-25T04:28:47.606Z,11.73
2022-08-25T04:31:19.464Z,9.88
2022-08-25T04:36:19.370Z,10.07
2022-08-25T04:38:50.779Z,9.98
2022-08-25T04:41:40.991Z,10.18
2022-08-25T04:44:10.022Z,10.15
2022-08-25T04:46:38.537Z,9.82
2022-08-25T04:49:10.302Z,10.45
2022-08-25T04:51:43.252Z,10.23
2022-08-25T04:54:17.172Z,9.88
2022-08-25T04:56:45.386Z,10.73
2022-08-25T04:59:17.441Z,10.20
2022-08-25T05:01:52.435Z,9.60
2022-08-25T05:04:29.079Z,9.32
2022-08-25T05:06:57.816Z,10.32
2022-08-25T05:09:28.603Z,10.30
2022-08-25T05:12:03.832Z,11.32
2022-08-25T05:14:32.699Z,10.70
2022-08-25T05:17:02.449Z,10.35
2022-08-25T05:19:31.618Z,10.98
2022-08-25T05:22:00.125Z,10.25
2022-08-25T05:24:33.629Z,12.82
2022-08-25T05:27:01.893Z,11.57
2022-08-25T05:29:29.598Z,11.32
2022-08-25T05:31:58.691Z,10.82
2022-08-25T05:34:27.345Z,10.45
2022-08-25T05:36:55.026Z,10.13
2022-08-25T05:39:22.991Z,10.15
2022-08-25T05:41:52.242Z,9.85
2022-08-25T05:44:21.322Z,9.55
2022-08-25T05:49:26.340Z,10.23
2022-08-25T05:51:53.897Z,10.30
2022-08-25T05:54:23.169Z,9.75
2022-08-25T05:56:55.433Z,10.68
2022-08-25T05:59:23.630Z,10.45
2022-08-25T06:02:10.034Z,10.50
2022-08-25T06:04:41.095Z,10.90
2022-08-25T06:07:10.155Z,10.60
2022-08-25T06:09:43.794Z,10.45
2022-08-25T06:12:13.154Z,10.95
2022-08-25T06:14:40.857Z,11.00
2022-08-25T06:17:11.126Z,14.15
2022-08-25T06:19:39.755Z,11.77
2022-08-25T06:22:14.363Z,10.48
2022-08-25T06:24:48.987Z,11.10
2022-08-25T06:27:25.211Z,11.40
2022-08-25T06:29:56.001Z,10.40
2022-08-25T06:32:24.721Z,10.57
2022-08-25T06:35:00.027Z,10.82
2022-08-25T06:37:29.520Z,10.60
2022-08-25T06:39:58.970Z,10.13
2022-08-25T06:42:52.223Z,10.80
2022-08-25T06:45:19.235Z,10.00
2022-08-25T06:47:47.866Z,11.35
2022-08-25T06:50:15.929Z,11.13
2022-08-25T06:52:54.222Z,10.45
2022-08-25T06:55:25.259Z,10.27
2022-08-25T06:57:59.411Z,11.10
2022-08-25T07:00:32.326Z,10.93
2022-08-25T07:03:01.915Z,17.63
2022-08-25T07:05:42.659Z,11.40
2022-08-25T07:11:16.461Z,10.32
2022-08-25T07:13:51.582Z,10.60
2022-08-25T07:16:27.988Z,10.20
2022-08-25T07:19:01.593Z,11.20
2022-08-25T07:21:33.733Z,10.82
2022-08-25T07:24:07.889Z,11.40
2022-08-25T07:26:39.630Z,10.80
2022-08-25T07:29:42.331Z,10.88
2022-08-25T07:32:09.793Z,10.60
2022-08-25T07:35:00.259Z,11.27
2022-08-25T07:40:42.950Z,10.50
2022-08-25T07:43:12.221Z,11.77
2022-08-25T07:45:49.285Z,11.18
2022-08-25T07:48:22.191Z,11.13
2022-08-25T07:50:53.256Z,11.48
2022-08-25T07:53:22.135Z,11.10
2022-08-25T07:55:55.384Z,10.73
2022-08-25T07:58:26.367Z,10.63
2022-08-25T08:00:59.067Z,11.13
2022-08-25T08:03:45.224Z,10.48
2022-08-25T08:06:29.012Z,10.70
2022-08-25T08:08:59.872Z,10.27
2022-08-25T08:11:32.308Z,10.30
2022-08-25T08:16:45.519Z,11.15
2022-08-25T08:19:14.259Z,10.43
2022-08-25T08:21:54.572Z,11.38
2022-08-25T08:24:44.199Z,11.93
2022-08-25T08:27:16.407Z,11.02
2022-08-25T08:29:52.945Z,10.98
2022-08-25T08:32:23.162Z,10.63
2022-08-25T08:34:59.917Z,10.43
2022-08-25T08:37:28.397Z,10.35
2022-08-25T08:39:56.371Z,10.27
2022-08-25T08:42:37.315Z,10.52
2022-08-25T08:45:25.432Z,11.07
2022-08-25T08:48:14.515Z,11.43
2022-08-25T08:51:10.642Z,10.73
2022-08-25T08:54:20.778Z,9.85
2022-08-25T08:56:55.909Z,10.00
2022-08-25T08:59:39.889Z,10.48
2022-08-25T09:02:39.230Z,9.80
2022-08-25T09:05:22.091Z,9.43
2022-08-25T09:08:05.927Z,9.95
2022-08-25T09:10:54.229Z,10.02
2022-08-25T09:13:39.883Z,11.60
2022-08-25T09:16:42.707Z,10.02
2022-08-25T09:19:23.395Z,10.48
2022-08-25T09:22:36.017Z,9.88
2022-08-25T09:25:10.927Z,10.15
2022-08-25T09:28:13.596Z,11.23
2022-08-25T09:31:02.357Z,9.55
2022-08-25T09:33:34.231Z,9.80
2022-08-25T09:36:16.679Z,10.25
2022-08-25T09:38:48.483Z,9.13
2022-08-25T09:41:19.624Z,9.60
2022-08-25T09:43:56.530Z,9.52
2022-08-25T09:46:30.168Z,10.00
2022-08-25T09:49:16.130Z,10.10
2022-08-25T09:51:46.634Z,9.32
2022-08-25T09:54:25.578Z,8.95
2022-08-25T09:57:08.730Z,13.50
2022-08-25T09:59:39.359Z,8.98
2022-08-25T10:02:27.209Z,9.43
2022-08-25T10:04:57.174Z,9.15
2022-08-25T10:07:36.980Z,9.35
2022-08-25T10:10:32.714Z,9.25
2022-08-25T10:13:02.746Z,10.02
2022-08-25T10:15:38.706Z,9.10
2022-08-25T10:18:35.517Z,9.32
2022-08-25T10:21:16.217Z,9.77
2022-08-25T10:23:56.288Z,9.65
2022-08-25T10:27:01.498Z,9.00
2022-08-25T10:30:03.055Z,8.05
2022-08-25T10:33:08.586Z,7.88
2022-08-25T10:35:55.194Z,8.20
2022-08-25T10:38:45.224Z,7.82
2022-08-25T10:41:31.239Z,8.32
2022-08-25T10:44:02.301Z,7.75
2022-08-25T10:46:58.941Z,7.90
2022-08-25T10:49:44.104Z,8.50
2022-08-25T10:52:38.793Z,7.03
2022-08-25T10:55:47.229Z,9.88
2022-08-25T10:58:33.949Z,7.75
2022-08-25T11:01:03.688Z,7.63
2022-08-25T11:03:55.591Z,7.80
2022-08-25T11:06:50.261Z,7.35
2022-08-25T11:09:26.811Z,8.10
2022-08-25T11:12:14.931Z,7.40
2022-08-25T11:15:29.557Z,8.48
2022-08-25T11:18:14.001Z,7.50
2022-08-25T11:21:25.845Z,7.40
2022-08-25T11:24:06.791Z,8.15
2022-08-25T11:26:38.493Z,8.68
2022-08-25T11:29:18.150Z,8.77
2022-08-25T11:31:59.570Z,7.95
2022-08-25T11:34:34.671Z,8.30
2022-08-25T11:37:21.059Z,7.40
2022-08-25T11:40:15.142Z,7.90
2022-08-25T11:42:57.500Z,7.90
2022-08-25T11:45:42.809Z,7.30
2022-08-25T11:49:15.134Z,6.63
2022-08-25T11:51:44.436Z,7.80
2022-08-25T11:54:47.341Z,7.55
2022-08-25T11:57:34.907Z,9.48
2022-08-25T12:00:10.110Z,7.70
2022-08-25T12:02:53.274Z,11.50
2022-08-25T12:05:24.741Z,7.63
2022-08-25T12:08:24.707Z,7.45
2022-08-25T12:11:15.554Z,6.97
2022-08-25T12:13:51.782Z,7.03
2022-08-25T12:16:38.658Z,7.60
2022-08-25T12:19:28.744Z,6.63
2022-08-25T12:22:40.023Z,6.40
2022-08-25T12:25:26.063Z,7.05
2022-08-25T12:28:26.572Z,7.13
2022-08-25T12:31:47.991Z,6.90
2022-08-25T12:37:37.541Z,6.88
2022-08-25T12:40:10.022Z,8.63
2022-08-25T12:42:41.816Z,7.30
2022-08-25T12:45:25.782Z,6.80
2022-08-25T12:47:54.794Z,7.32
2022-08-25T12:50:45.603Z,6.97
2022-08-25T12:53:55.576Z,6.97
2022-08-25T12:56:37.483Z,7.47
2022-08-25T12:59:16.334Z,8.55
2022-08-25T13:02:18.931Z,6.97
2022-08-25T13:05:24.000Z,7.13
2022-08-25T13:08:00.915Z,7.32
2022-08-25T13:10:47.862Z,7.20
2022-08-25T13:13:34.827Z,7.20
2022-08-25T13:16:09.096Z,7.47
2022-08-25T13:18:40.915Z,7.63
2022-08-25T13:21:22.925Z,7.05
2022-08-25T13:24:01.613Z,6.88
2022-08-25T13:26:39.000Z,7.00
2022-08-25T13:29:23.559Z,7.22
2022-08-25T13:32:09.665Z,6.97
2022-08-25T13:34:45.311Z,7.20
2022-08-25T13:37:32.798Z,7.38
2022-08-25T13:40:26.044Z,8.98
2022-08-25T13:43:07.843Z,7.20
2022-08-25T13:45:42.814Z,6.72
2022-08-25T13:48:22.509Z,7.05
2022-08-25T13:50:56.103Z,7.05
2022-08-25T13:53:39.269Z,7.10
2022-08-25T13:56:09.157Z,10.48
2022-08-25T13:58:44.211Z,6.38
2022-08-25T14:01:48.704Z,6.57
2022-08-25T14:04:51.503Z,6.28
2022-08-25T14:07:34.024Z,6.22
2022-08-25T14:10:14.027Z,6.60
2022-08-25T14:15:23.303Z,6.05
2022-08-25T14:18:13.832Z,7.97
2022-08-25T14:20:50.449Z,6.93
2022-08-25T14:23:27.307Z,8.63
2022-08-25T14:26:01.458Z,6.93
2022-08-25T14:28:33.913Z,7.05
2022-08-25T14:31:18.157Z,7.13
2022-08-25T14:34:04.462Z,7.13
2022-08-25T14:36:35.792Z,6.60
2022-08-25T14:39:08.744Z,6.60
2022-08-25T14:41:51.106Z,6.72
2022-08-25T14:44:20.788Z,7.32
2022-08-25T14:47:00.542Z,6.90
2022-08-25T14:52:19.219Z,6.72
2022-08-25T14:54:50.047Z,6.07
2022-08-25T14:57:19.547Z,7.45
2022-08-25T14:59:54.124Z,6.68
2022-08-25T15:02:29.459Z,7.18
2022-08-25T15:05:07.222Z,6.88
2022-08-25T15:07:59.196Z,6.55
2022-08-25T15:10:28.563Z,7.03
2022-08-25T15:12:59.135Z,7.53
2022-08-25T15:15:28.931Z,6.67
2022-08-25T15:18:03.052Z,7.35
2022-08-25T15:20:30.548Z,6.75
2022-08-25T15:22:58.174Z,6.53
2022-08-25T15:25:31.527Z,7.05
2022-08-25T15:27:59.068Z,6.95
2022-08-25T15:30:31.319Z,6.53
2022-08-25T15:33:00.988Z,6.63
2022-08-25T15:38:14.376Z,7.18
2022-08-25T15:40:43.181Z,7.68
2022-08-25T15:45:46.351Z,6.57
2022-08-25T15:48:18.254Z,6.55
2022-08-25T15:50:48.865Z,7.35
2022-08-25T15:53:20.758Z,7.00
2022-08-25T15:55:52.402Z,7.10
2022-08-25T15:58:23.068Z,8.68
2022-08-25T16:00:56.094Z,6.57
2022-08-25T16:03:23.543Z,6.03
2022-08-25T16:05:54.036Z,9.63
2022-08-25T16:08:33.853Z,8.05
2022-08-25T16:11:33.270Z,6.32
2022-08-25T16:14:06.593Z,6.97
2022-08-25T16:16:40.343Z,7.72
2022-08-25T16:19:11.268Z,11.98
2022-08-25T16:21:42.207Z,7.00
2022-08-25T16:24:17.399Z,7.03
2022-08-25T16:26:52.421Z,6.50
2022-08-25T16:29:35.805Z,6.88
2022-08-25T16:32:06.298Z,7.68
2022-08-25T16:34:37.624Z,6.75
2022-08-25T16:37:10.437Z,6.88
2022-08-25T16:39:42.016Z,6.55
2022-08-25T16:42:21.537Z,6.30
2022-08-25T16:44:53.806Z,6.28
2022-08-25T16:47:25.290Z,6.22
2022-08-25T16:49:54.821Z,9.27
2022-08-25T16:52:44.424Z,7.65
2022-08-25T16:55:27.094Z,11.63
2022-08-25T16:57:56.846Z,8.00
2022-08-25T17:00:32.846Z,8.10
2022-08-25T17:03:05.191Z,7.82
2022-08-25T17:05:44.726Z,9.10
2022-08-25T17:08:30.870Z,8.68
2022-08-25T17:11:18.137Z,8.00
2022-08-25T17:13:50.058Z,7.75
2022-08-25T17:16:20.805Z,8.13
2022-08-25T17:18:48.483Z,9.10
2022-08-25T17:21:23.955Z,8.23
2022-08-25T17:23:53.637Z,8.57
2022-08-25T17:26:27.860Z,8.90
2022-08-25T17:28:59.328Z,8.63
2022-08-25T17:31:32.636Z,8.98
2022-08-25T17:34:04.292Z,9.30
2022-08-25T17:36:35.661Z,8.52
2022-08-25T17:39:11.032Z,8.65
2022-08-25T17:41:38.056Z,8.75
2022-08-25T17:44:08.890Z,8.55
2022-08-25T17:46:41.777Z,8.63
2022-08-25T17:49:15.596Z,8.38
2022-08-25T17:51:46.951Z,8.50
2022-08-25T17:54:15.652Z,8.57
2022-08-25T17:56:43.380Z,8.52
2022-08-25T17:59:12.107Z,8.95
2022-08-25T18:01:42.118Z,9.40
2022-08-25T18:06:53.710Z,10.55
2022-08-25T18:09:22.390Z,10.32
2022-08-25T18:11:55.856Z,10.00
2022-08-25T18:14:29.174Z,9.68
2022-08-25T18:16:57.073Z,9.82
2022-08-25T18:19:25.022Z,10.20
2022-08-25T18:21:56.390Z,10.20
2022-08-25T18:24:33.106Z,9.05
2022-08-25T18:27:08.655Z,9.80
2022-08-25T18:29:47.573Z,9.18
2022-08-25T18:32:19.727Z,10.02
2022-08-25T18:34:55.579Z,9.50
2022-08-25T18:37:50.197Z,9.15
2022-08-25T18:40:28.115Z,10.32
2022-08-25T18:43:17.238Z,9.32
2022-08-25T18:48:38.988Z,10.27
2022-08-25T18:51:14.120Z,10.10
2022-08-25T18:53:50.042Z,10.43
2022-08-25T18:56:19.621Z,9.80
2022-08-25T18:58:51.952Z,9.77
2022-08-25T19:01:27.259Z,9.77
2022-08-25T19:04:01.513Z,9.80
2022-08-25T19:06:39.516Z,10.70
2022-08-25T19:09:19.309Z,9.85
2022-08-25T19:11:56.338Z,10.13
2022-08-25T19:14:45.397Z,9.38
2022-08-25T19:17:27.977Z,10.47
2022-08-25T19:20:13.199Z,10.20
2022-08-25T19:22:42.097Z,9.60
2022-08-25T19:25:12.103Z,12.05
2022-08-25T19:27:55.155Z,11.52
2022-08-25T19:30:27.421Z,11.98
2022-08-25T19:33:01.145Z,11.40
2022-08-25T19:35:51.020Z,10.60
2022-08-25T19:38:34.182Z,10.18
2022-08-25T19:41:13.963Z,10.90
2022-08-25T19:43:55.371Z,9.85
2022-08-25T19:46:41.736Z,10.95
2022-08-25T19:49:21.002Z,10.25
2022-08-25T19:51:56.539Z,10.70
2022-08-25T19:54:46.615Z,11.48
2022-08-25T19:57:28.203Z,10.95
2022-08-25T20:00:16.673Z,10.73
2022-08-25T20:02:44.635Z,10.18
2022-08-25T20:05:23.837Z,10.63
2022-08-25T20:10:26.330Z,10.13
2022-08-25T20:13:04.436Z,11.35
2022-08-25T20:15:34.496Z,10.57
2022-08-25T20:18:10.265Z,10.90
2022-08-25T20:20:42.549Z,10.35
2022-08-25T20:23:29.086Z,10.50
2022-08-25T20:26:01.173Z,10.27
2022-08-25T20:28:30.661Z,11.02
2022-08-25T20:31:02.172Z,10.77
2022-08-25T20:33:31.247Z,10.07
2022-08-25T20:35:59.829Z,11.45
2022-08-25T20:38:30.011Z,10.98
2022-08-25T20:41:00.375Z,10.30
2022-08-25T20:43:32.701Z,11.18
2022-08-25T20:46:08.601Z,12.00
2022-08-25T20:51:19.964Z,11.23
2022-08-25T20:53:52.278Z,10.85
2022-08-25T20:56:21.396Z,12.18
2022-08-25T20:58:49.238Z,11.30
2022-08-25T21:01:37.726Z,10.75
2022-08-25T21:04:14.422Z,11.55
2022-08-25T21:06:56.514Z,10.40
2022-08-25T21:09:30.542Z,11.00
2022-08-25T21:12:05.276Z,11.90
2022-08-25T21:14:40.678Z,12.23
2022-08-25T21:17:19.024Z,10.93
2022-08-25T21:22:16.805Z,11.63
2022-08-25T21:25:04.911Z,11.27
2022-08-25T21:27:34.445Z,11.68
2022-08-25T21:30:07.203Z,11.07
2022-08-25T21:32:35.806Z,10.75
2022-08-25T21:35:08.703Z,12.02
2022-08-25T21:37:40.022Z,11.43
2022-08-25T21:40:20.354Z,11.15
2022-08-25T21:42:51.546Z,11.88
2022-08-25T21:45:35.878Z,12.07
2022-08-25T21:48:06.767Z,12.02
2022-08-25T21:50:45.939Z,11.75
2022-08-25T21:53:24.565Z,11.80
2022-08-25T21:55:56.295Z,12.07
2022-08-25T21:58:36.295Z,12.30
2022-08-25T22:01:12.781Z,11.52
2022-08-25T22:03:43.324Z,12.35
2022-08-25T22:06:31.769Z,11.93
2022-08-25T22:08:59.381Z,11.90
2022-08-25T22:11:35.992Z,11.90
2022-08-25T22:14:07.121Z,11.75
2022-08-25T22:16:37.180Z,12.10
2022-08-25T22:19:06.725Z,11.97
2022-08-25T22:21:35.823Z,13.45
2022-08-25T22:24:03.807Z,11.50
2022-08-25T22:26:35.800Z,11.93
2022-08-25T22:29:05.925Z,12.50
2022-08-25T22:31:36.053Z,12.65
2022-08-25T22:34:09.101Z,12.40
2022-08-25T22:39:40.220Z,12.23
2022-08-25T22:42:08.754Z,12.98
2022-08-25T22:47:28.039Z,12.65
2022-08-25T22:50:02.424Z,12.85
2022-08-25T22:52:33.301Z,12.50
2022-08-25T22:55:11.318Z,12.55
2022-08-25T22:57:43.782Z,12.25
2022-08-25T23:00:17.952Z,12.52
2022-08-25T23:02:47.815Z,12.70
2022-08-25T23:05:16.401Z,15.68
2022-08-25T23:07:48.986Z,13.57
2022-08-25T23:10:16.887Z,12.85
2022-08-25T23:12:43.988Z,11.90
2022-08-25T23:15:14.075Z,13.20
2022-08-25T23:17:42.004Z,12.63
2022-08-25T23:20:31.110Z,13.20
2022-08-25T23:23:00.687Z,12.50
2022-08-25T23:25:49.202Z,13.40
2022-08-25T23:28:18.529Z,12.88
2022-08-25T23:30:59.177Z,13.90
2022-08-25T23:33:34.771Z,12.27
2022-08-25T23:36:09.344Z,12.75
2022-08-25T23:38:43.944Z,12.50
2022-08-25T23:41:22.047Z,12.40
2022-08-25T23:43:53.305Z,12.98
2022-08-25T23:46:22.970Z,12.52
2022-08-25T23:49:00.689Z,12.80
2022-08-25T23:51:37.127Z,13.85
2022-08-25T23:54:11.656Z,12.82
2022-08-25T23:56:44.526Z,13.23
2022-08-25T23:59:24.746Z,12.88
